Time;durP1;ratioP1;P1;durP2;ratioP2;P2;SDS_P1;SDS_P2;PMS_P1;PMS_P2;Temp;Humidity;BMP_temperature;BMP_pressure;BME280_temperature;BME280_humidity;BME280_pressure;Samples;Min_cycle;Max_cycle;Signal;HPM_P1;HPM_P2
2022/09/16 00:00:10;;;;;;;15.38;3.25;;;;;;;18.71;53.48;97993.75;5157533;27;20026;-68
2022/09/16 00:02:36;;;;;;;7.10;3.63;;;;;;;18.71;53.52;97994.56;5151824;27;20370;-67
2022/09/16 00:05:01;;;;;;;5.95;3.42;;;;;;;18.70;53.43;97984.09;5137225;27;20030;-66
2022/09/16 00:07:29;;;;;;;7.57;3.40;;;;;;;18.72;53.50;97979.34;5147098;27;20066;-65
2022/09/16 00:09:54;;;;;;;7.20;3.15;;;;;;;18.70;53.57;97981.41;5157778;27;20034;-67
2022/09/16 00:12:20;;;;;;;6.55;3.95;;;;;;;18.70;53.62;97984.88;5155139;27;20393;-70
2022/09/16 00:14:45;;;;;;;3.78;3.00;;;;;;;18.69;53.67;97982.44;5157551;27;20039;-65
2022/09/16 00:17:11;;;;;;;5.00;3.20;;;;;;;18.71;53.67;97980.38;5157617;27;20126;-65
2022/09/16 00:19:36;;;;;;;4.55;3.75;;;;;;;18.70;53.73;97979.53;5156162;27;20060;-66
2022/09/16 00:22:02;;;;;;;7.10;3.38;;;;;;;18.71;53.49;97983.84;5156821;27;20039;-68
2022/09/16 00:24:28;;;;;;;4.85;3.22;;;;;;;18.71;53.55;97986.53;5153013;27;20027;-65
2022/09/16 00:26:54;;;;;;;5.15;3.28;;;;;;;18.71;53.32;97989.22;5150121;27;20046;-67
2022/09/16 00:29:19;;;;;;;5.25;3.53;;;;;;;18.69;53.49;97985.91;5154992;27;20133;-67
2022/09/16 00:31:44;;;;;;;5.13;3.28;;;;;;;18.69;53.61;97987.78;5155982;27;20087;-65
2022/09/16 00:34:10;;;;;;;3.70;2.88;;;;;;;18.69;53.57;97990.47;5154867;27;20038;-67
2022/09/16 00:36:35;;;;;;;4.18;2.88;;;;;;;18.69;53.42;97990.47;5156931;27;20374;-69
2022/09/16 00:39:01;;;;;;;5.50;2.95;;;;;;;18.70;53.35;97992.13;5155199;27;20073;-68
2022/09/16 00:41:31;;;;;;;4.68;2.95;;;;;;;18.69;53.49;97996.63;5152756;27;20058;-68
2022/09/16 00:44:00;;;;;;;9.38;3.40;;;;;;;18.71;53.40;97997.25;5155064;27;20149;-67
2022/09/16 00:46:44;;;;;;;4.88;2.88;;;;;;;18.70;53.50;97984.09;5151859;27;20168;-66
2022/09/16 00:49:19;;;;;;;4.55;3.03;;;;;;;18.70;53.49;97998.28;5140714;27;20043;-69
2022/09/16 00:51:49;;;;;;;3.53;2.47;;;;;;;18.69;53.50;97987.78;5156018;27;20042;-66
2022/09/16 00:54:18;;;;;;;4.97;3.00;;;;;;;18.69;53.54;97983.25;5154741;27;20046;-65
2022/09/16 00:56:47;;;;;;;9.15;3.00;;;;;;;18.69;53.58;97985.91;5154272;27;20062;-65
2022/09/16 00:59:23;;;;;;;7.57;3.22;;;;;;;18.70;53.50;97978.72;5153827;27;20102;-65
2022/09/16 01:01:50;;;;;;;4.57;2.92;;;;;;;18.71;53.53;97981.19;5154416;27;20034;-65
2022/09/16 01:04:24;;;;;;;8.80;2.60;;;;;;;18.72;53.47;97973.97;5154571;27;20029;-65
2022/09/16 01:06:50;;;;;;;4.18;2.55;;;;;;;18.73;53.46;97968.41;5156005;27;20031;-64
2022/09/16 01:09:19;;;;;;;4.07;2.60;;;;;;;18.75;53.25;97970.84;5154967;27;20046;-65
2022/09/16 01:11:45;;;;;;;4.22;2.70;;;;;;;18.74;53.51;97971.91;5155881;27;20030;-65
2022/09/16 01:17:27;;;;;;;3.35;2.70;;;;;;;18.72;53.30;97968.63;5155854;27;20605;-66
2022/09/16 01:20:09;;;;;;;3.10;2.40;;;;;;;18.70;53.33;97965.31;5153980;27;20117;-63
2022/09/16 01:22:44;;;;;;;6.20;2.50;;;;;;;18.70;53.09;97968.81;5155432;27;20083;-65
2022/09/16 01:25:22;;;;;;;7.82;3.00;;;;;;;18.69;53.35;97969.03;5155451;27;20057;-64
2022/09/16 01:27:50;;;;;;;8.27;2.58;;;;;;;18.68;53.22;97967.41;5155031;27;20034;-65
2022/09/16 01:30:19;;;;;;;4.70;3.10;;;;;;;18.67;53.27;97963.91;5154346;27;20129;-66
2022/09/16 01:33:12;;;;;;;5.60;2.72;;;;;;;18.67;53.14;97963.06;5153886;27;20118;-64
2022/09/16 01:35:50;;;;;;;6.10;2.88;;;;;;;18.66;53.36;97972.97;5148768;27;20042;-65
2022/09/16 01:38:25;;;;;;;3.05;2.47;;;;;;;18.65;53.14;97965.97;5155069;27;20072;-65
2022/09/16 01:41:08;;;;;;;4.95;2.30;;;;;;;18.66;53.10;97972.13;5155167;27;20037;-63
2022/09/16 01:43:58;;;;;;;3.28;2.30;;;;;;;18.65;53.23;97970.50;5154527;27;20420;-65
2022/09/16 01:46:35;;;;;;;4.65;2.80;;;;;;;18.63;53.39;97967.19;5154786;27;20037;-65
2022/09/16 01:49:11;;;;;;;4.90;2.63;;;;;;;18.62;53.38;97969.06;5154720;27;20083;-65
2022/09/16 01:51:48;;;;;;;3.70;2.90;;;;;;;18.63;53.30;97965.34;5155075;27;20117;-67
2022/09/16 01:54:31;;;;;;;3.33;2.63;;;;;;;18.63;53.21;97959.16;5154197;27;20050;-66
2022/09/16 01:57:07;;;;;;;4.97;2.70;;;;;;;18.61;53.35;97957.50;5154226;27;20446;-67
2022/09/16 01:59:45;;;;;;;4.25;2.90;;;;;;;18.61;53.20;97962.88;5154350;27;20034;-67
2022/09/16 02:02:22;;;;;;;6.25;3.40;;;;;;;18.60;53.32;97963.91;5154502;27;20027;-63
2022/09/16 02:04:53;;;;;;;3.25;2.38;;;;;;;18.61;53.18;97962.88;5154367;27;20442;-66
2022/09/16 02:07:25;;;;;;;3.58;2.97;;;;;;;18.61;53.00;97962.88;5154314;27;20060;-67
2022/09/16 02:09:56;;;;;;;2.90;2.40;;;;;;;18.61;53.16;97960.19;5154383;27;20042;-63
2022/09/16 02:12:27;;;;;;;2.70;2.28;;;;;;;18.61;53.08;97954.03;5154488;27;20099;-66
2022/09/16 02:15:00;;;;;;;3.53;2.72;;;;;;;18.60;53.03;97955.88;5152968;27;20031;-65
2022/09/16 02:17:30;;;;;;;4.30;2.72;;;;;;;18.61;53.13;97964.75;5154890;27;20113;-65
2022/09/16 02:20:08;;;;;;;3.40;2.85;;;;;;;18.60;53.25;97963.91;5155208;27;20031;-65
2022/09/16 02:22:39;;;;;;;3.10;2.80;;;;;;;18.60;53.18;97961.22;5154760;27;20037;-66
2022/09/16 02:25:07;;;;;;;5.60;3.20;;;;;;;18.60;53.26;97958.53;5154678;27;20029;-66
2022/09/16 02:27:36;;;;;;;5.15;3.17;;;;;;;18.60;53.39;97955.88;5154092;27;20121;-65
2022/09/16 02:30:10;;;;;;;3.55;2.60;;;;;;;18.60;53.11;97955.88;5155089;27;20031;-66
2022/09/16 02:32:42;;;;;;;5.28;3.15;;;;;;;18.60;53.23;97952.38;5154643;27;20060;-66
2022/09/16 02:35:10;;;;;;;3.72;2.78;;;;;;;18.61;53.19;97952.16;5155203;27;20423;-67
2022/09/16 02:37:41;;;;;;;3.63;2.90;;;;;;;18.59;53.30;97951.56;5154367;27;20061;-65
2022/09/16 02:40:29;;;;;;;3.50;2.70;;;;;;;18.60;53.22;97955.88;5154268;27;20026;-65
2022/09/16 02:42:57;;;;;;;3.80;3.05;;;;;;;18.58;52.98;97944.56;5153888;27;20031;-66
2022/09/16 02:45:29;;;;;;;3.30;2.22;;;;;;;18.59;53.13;97948.91;5154867;27;20022;-65
2022/09/16 02:48:06;;;;;;;4.65;3.17;;;;;;;18.59;53.20;97940.03;5154103;27;20113;-67
2022/09/16 02:50:41;;;;;;;3.17;2.67;;;;;;;18.60;53.28;97938.97;5154385;27;20061;-67
2022/09/16 02:53:18;;;;;;;3.30;2.35;;;;;;;18.59;53.32;97940.84;5153580;27;20062;-66
2022/09/16 02:55:43;;;;;;;5.13;3.08;;;;;;;18.58;53.29;97947.25;5155003;27;20393;-65
2022/09/16 02:58:10;;;;;;;4.35;3.17;;;;;;;18.58;53.17;97941.06;5153891;27;20026;-65
2022/09/16 03:00:42;;;;;;;3.67;2.85;;;;;;;18.59;53.18;97940.03;5154343;27;20030;-66
2022/09/16 03:03:08;;;;;;;4.22;2.90;;;;;;;18.57;53.41;97948.28;5153967;27;20026;-67
2022/09/16 03:05:33;;;;;;;3.42;2.63;;;;;;;18.57;53.06;97942.09;5154276;27;20030;-66
2022/09/16 03:08:02;;;;;;;3.47;2.72;;;;;;;18.59;53.20;97940.03;5154007;27;20083;-65
2022/09/16 03:10:35;;;;;;;4.60;2.65;;;;;;;18.58;52.95;97939.22;5133331;28;20493;-66
2022/09/16 03:13:10;;;;;;;3.38;2.67;;;;;;;18.58;53.14;97933.00;5133570;28;20031;-66
2022/09/16 03:15:51;;;;;;;3.33;2.50;;;;;;;18.57;53.18;97926.00;5133693;28;20084;-67
2022/09/16 03:18:48;;;;;;;5.40;2.77;;;;;;;18.56;53.10;97930.56;5139139;27;20027;-67
2022/09/16 03:21:16;;;;;;;4.60;3.00;;;;;;;18.56;53.10;97932.41;5146339;27;20118;-67
2022/09/16 03:23:51;;;;;;;4.80;3.28;;;;;;;18.57;53.15;97915.28;5153976;27;20027;-65
2022/09/16 03:26:51;;;;;;;3.50;2.45;;;;;;;18.56;53.33;97925.19;5156046;27;20042;-67
2022/09/16 03:29:19;;;;;;;3.67;2.85;;;;;;;18.56;53.07;97933.25;5132579;27;20052;-65
2022/09/16 03:32:19;;;;;;;3.15;2.40;;;;;;;18.57;53.19;97937.56;5157817;27;20034;-67
2022/09/16 03:35:08;;;;;;;3.78;3.20;;;;;;;18.55;53.07;97938.78;5147300;27;20065;-67
2022/09/16 03:37:35;;;;;;;3.22;2.63;;;;;;;18.56;53.11;97927.88;5156755;27;20486;-67
2022/09/16 03:40:09;;;;;;;4.93;3.35;;;;;;;18.58;53.00;97941.06;5146389;27;20484;-64
2022/09/16 03:42:38;;;;;;;3.92;3.15;;;;;;;18.59;53.07;97932.81;5157337;27;20033;-64
2022/09/16 03:45:05;;;;;;;4.90;2.90;;;;;;;18.58;53.07;97931.19;5156437;27;20030;-64
2022/09/16 03:47:30;;;;;;;4.70;2.83;;;;;;;18.60;53.33;97937.13;5158637;27;20029;-65
2022/09/16 03:49:56;;;;;;;4.78;2.97;;;;;;;18.60;53.25;97931.75;5158122;27;20031;-66
2022/09/16 03:52:21;;;;;;;4.18;3.10;;;;;;;18.63;53.12;97945.75;5158216;27;20053;-66
2022/09/16 03:54:47;;;;;;;3.20;2.47;;;;;;;18.61;53.26;97946.00;5157040;27;20035;-65
2022/09/16 03:57:12;;;;;;;3.67;2.88;;;;;;;18.61;53.27;97949.47;5158341;27;20083;-66
2022/09/16 03:59:38;;;;;;;4.63;3.67;;;;;;;18.61;53.28;97943.31;5156772;27;20058;-67
2022/09/16 04:02:03;;;;;;;4.85;2.80;;;;;;;18.63;53.38;97953.81;5156603;27;20035;-65
2022/09/16 04:04:28;;;;;;;4.22;3.08;;;;;;;18.61;53.28;97949.47;5156868;27;20027;-65
2022/09/16 04:06:54;;;;;;;4.45;3.00;;;;;;;18.64;53.27;97958.13;5157377;27;20431;-67
2022/09/16 04:09:19;;;;;;;3.90;2.95;;;;;;;18.61;53.20;97954.84;5156901;27;20397;-66
2022/09/16 04:11:45;;;;;;;4.45;3.58;;;;;;;18.63;53.08;97957.31;5157482;27;20038;-65
2022/09/16 04:14:10;;;;;;;3.17;2.67;;;;;;;18.63;53.11;97951.97;5157352;27;20484;-66
2022/09/16 04:16:36;;;;;;;3.92;3.28;;;;;;;18.63;53.18;97948.44;5156503;27;20023;-68
2022/09/16 04:19:01;;;;;;;4.18;3.28;;;;;;;18.64;53.02;97944.72;5156110;27;20121;-67
2022/09/16 04:21:28;;;;;;;4.07;2.67;;;;;;;18.63;53.05;97943.94;5156632;27;20041;-68
2022/09/16 04:23:53;;;;;;;3.35;2.63;;;;;;;18.65;53.15;97941.03;5156792;27;20027;-67
2022/09/16 04:26:19;;;;;;;5.97;3.30;;;;;;;18.65;53.17;97943.69;5157453;27;20503;-68
2022/09/16 04:28:46;;;;;;;4.53;2.90;;;;;;;18.65;53.12;97946.38;5156422;27;20034;-66
2022/09/16 04:31:14;;;;;;;4.63;3.03;;;;;;;18.66;53.04;97948.03;5157296;27;20388;-68
2022/09/16 04:33:40;;;;;;;5.75;3.15;;;;;;;18.66;53.04;97948.03;5156853;27;20066;-64
2022/09/16 04:36:11;;;;;;;3.80;2.90;;;;;;;18.66;53.03;97946.19;5157341;27;20525;-66
2022/09/16 04:38:38;;;;;;;3.92;3.45;;;;;;;18.66;53.09;97946.19;5155720;27;20071;-66
2022/09/16 04:41:13;;;;;;;4.00;3.05;;;;;;;18.68;53.20;97937.94;5157250;27;20102;-66
2022/09/16 04:43:39;;;;;;;4.45;3.40;;;;;;;18.67;52.97;97936.28;5156155;27;20034;-65
2022/09/16 04:46:05;;;;;;;4.60;3.38;;;;;;;18.67;52.99;97937.13;5157023;27;20416;-66
2022/09/16 04:48:31;;;;;;;3.85;3.05;;;;;;;18.68;52.97;97932.56;5156230;27;20034;-67
2022/09/16 04:51:09;;;;;;;4.32;3.00;;;;;;;18.70;53.02;97925.16;5154864;27;20037;-66
2022/09/16 04:53:36;;;;;;;3.38;2.83;;;;;;;18.70;53.18;97930.50;5156461;27;20042;-68
2022/09/16 04:56:21;;;;;;;4.15;2.78;;;;;;;18.72;53.28;97931.13;5157126;27;20035;-65
2022/09/16 04:58:50;;;;;;;3.22;2.92;;;;;;;18.72;53.21;97923.06;5155302;27;20118;-66
2022/09/16 05:01:18;;;;;;;4.65;3.05;;;;;;;18.73;53.30;97930.09;5155304;27;20030;-66
2022/09/16 05:03:47;;;;;;;8.07;3.58;;;;;;;18.75;53.64;97927.97;5155452;27;20049;-67
2022/09/16 05:06:15;;;;;;;4.70;3.65;;;;;;;18.75;53.70;97927.97;5155805;27;20039;-65
2022/09/16 05:08:41;;;;;;;6.47;3.35;;;;;;;18.71;53.63;97926.78;5155702;27;20054;-63
2022/09/16 05:11:13;;;;;;;5.70;3.80;;;;;;;18.67;54.05;97923.72;5156203;27;20038;-61
2022/09/16 05:13:38;;;;;;;5.90;3.80;;;;;;;18.65;54.17;97917.75;5155992;27;20058;-63
2022/09/16 05:16:10;;;;;;;7.13;3.97;;;;;;;18.61;54.52;97925.38;5154492;27;20519;-63
2022/09/16 05:18:37;;;;;;;12.15;4.30;;;;;;;18.59;54.47;97921.28;5154949;27;20038;-65
2022/09/16 05:21:04;;;;;;;5.50;4.45;;;;;;;18.57;54.68;97909.94;5155567;27;20023;-63
2022/09/16 05:23:30;;;;;;;10.05;4.95;;;;;;;18.55;54.41;97915.53;5153953;27;20113;-65
2022/09/16 05:26:03;;;;;;;5.53;3.83;;;;;;;18.55;54.58;97920.88;5154869;27;20083;-63
2022/09/16 05:28:29;;;;;;;5.35;3.90;;;;;;;18.52;54.56;97907.09;5156166;27;20450;-65
2022/09/16 05:30:54;;;;;;;10.15;4.40;;;;;;;18.53;54.84;97903.38;5155204;27;20069;-65
2022/09/16 05:33:19;;;;;;;6.78;4.65;;;;;;;18.52;54.92;97907.91;5155730;27;20034;-63
2022/09/16 05:35:45;;;;;;;8.57;4.35;;;;;;;18.51;54.88;97905.44;5155368;27;20066;-65
2022/09/16 05:38:12;;;;;;;5.72;3.85;;;;;;;18.48;54.75;97905.88;5153531;27;20035;-65
2022/09/16 05:40:38;;;;;;;7.22;4.55;;;;;;;18.48;54.83;97903.19;5155675;27;20504;-65
2022/09/16 05:43:03;;;;;;;7.40;4.18;;;;;;;18.45;54.64;97889.19;5155693;27;20031;-65
2022/09/16 05:45:29;;;;;;;8.30;4.43;;;;;;;18.44;54.55;97886.72;5156112;27;20026;-65
2022/09/16 05:47:54;;;;;;;6.07;4.53;;;;;;;18.44;54.62;97886.72;5155434;27;20054;-64
2022/09/16 05:50:20;;;;;;;8.50;4.70;;;;;;;18.42;54.45;97892.28;5155555;27;20042;-64
2022/09/16 05:52:45;;;;;;;5.32;4.20;;;;;;;18.43;54.47;97903.84;5155528;27;20073;-66
2022/09/16 05:55:10;;;;;;;5.03;3.65;;;;;;;18.42;54.50;97888.78;5155346;27;20038;-66
2022/09/16 05:57:36;;;;;;;9.73;4.43;;;;;;;18.43;54.37;97895.81;5137179;27;20034;-64
2022/09/16 06:00:04;;;;;;;4.40;3.58;;;;;;;18.44;54.40;97892.09;5155570;27;20042;-65
2022/09/16 06:02:29;;;;;;;8.43;4.53;;;;;;;18.45;54.29;97897.22;5155381;27;20042;-66
2022/09/16 06:04:55;;;;;;;5.32;3.75;;;;;;;18.45;54.29;97894.53;5155121;27;20469;-66
2022/09/16 06:07:20;;;;;;;12.15;4.35;;;;;;;18.46;54.22;97892.66;5155347;27;20038;-66
2022/09/16 06:09:46;;;;;;;6.57;4.28;;;;;;;18.47;54.25;97897.00;5155050;27;20064;-65
2022/09/16 06:12:11;;;;;;;5.00;3.65;;;;;;;18.47;54.24;97888.16;5155049;27;20150;-66
2022/09/16 06:14:36;;;;;;;7.03;4.75;;;;;;;18.46;54.17;97884.63;5155071;27;20373;-66
2022/09/16 06:17:02;;;;;;;8.07;4.63;;;;;;;18.46;54.18;97876.59;5155244;27;20421;-65
2022/09/16 06:19:28;;;;;;;5.15;3.80;;;;;;;18.48;53.92;97884.44;5154711;27;20053;-65
2022/09/16 06:21:53;;;;;;;5.88;4.45;;;;;;;18.47;53.97;97883.59;5155189;27;20038;-65
2022/09/16 06:24:20;;;;;;;6.10;4.47;;;;;;;18.49;53.91;97888.78;5154731;27;20401;-66
2022/09/16 06:26:47;;;;;;;5.60;4.47;;;;;;;18.49;53.86;97881.53;5154996;27;20129;-64
2022/09/16 06:29:13;;;;;;;6.03;4.60;;;;;;;18.48;54.07;97884.44;5154659;27;20035;-65
2022/09/16 06:31:39;;;;;;;9.18;4.47;;;;;;;18.49;53.83;97880.72;5154728;27;20073;-64
2022/09/16 06:34:06;;;;;;;7.32;4.80;;;;;;;18.49;53.85;97878.88;5155381;27;20062;-64
2022/09/16 06:36:37;;;;;;;5.45;4.10;;;;;;;18.49;53.88;97870.03;5154562;27;20065;-64
2022/09/16 06:39:04;;;;;;;6.43;4.40;;;;;;;18.47;54.05;97864.06;5153745;27;20034;-66
2022/09/16 06:41:32;;;;;;;7.43;4.40;;;;;;;18.48;53.89;97871.88;5154585;27;20126;-64
2022/09/16 06:43:58;;;;;;;7.38;5.07;;;;;;;18.48;53.96;97860.34;5154593;27;20035;-66
2022/09/16 06:46:26;;;;;;;8.73;5.22;;;;;;;18.51;53.96;97866.09;5154550;27;20042;-65
2022/09/16 06:48:55;;;;;;;5.53;4.68;;;;;;;18.53;53.87;97872.06;5154433;27;20161;-67
2022/09/16 06:51:23;;;;;;;8.63;5.40;;;;;;;18.54;53.52;97865.66;5154652;27;20065;-67
2022/09/16 06:53:50;;;;;;;6.43;5.10;;;;;;;18.55;53.63;97867.31;5154033;27;20072;-66
2022/09/16 06:56:18;;;;;;;8.52;5.60;;;;;;;18.58;53.64;97852.66;5154378;27;20117;-65
2022/09/16 06:58:49;;;;;;;7.85;5.40;;;;;;;18.60;53.68;97862.13;5154320;27;20087;-65
2022/09/16 07:01:26;;;;;;;4.27;3.50;;;;;;;18.61;53.63;97860.28;5154509;27;20105;-67
2022/09/16 07:03:53;;;;;;;9.57;5.47;;;;;;;18.64;53.63;97859.00;5154183;27;20268;-65
2022/09/16 07:06:20;;;;;;;10.15;4.68;;;;;;;18.65;53.51;97860.66;5154472;27;20033;-66
2022/09/16 07:08:47;;;;;;;9.30;5.15;;;;;;;18.65;53.50;97856.13;5154294;27;20034;-65
2022/09/16 07:11:13;;;;;;;7.20;5.63;;;;;;;18.69;53.55;97856.53;5154398;27;20030;-66
2022/09/16 07:13:39;;;;;;;7.93;4.75;;;;;;;18.72;53.51;97864.94;5154168;27;20034;-66
2022/09/16 07:16:12;;;;;;;7.63;5.25;;;;;;;18.75;53.36;97851.13;5154407;27;20039;-64
2022/09/16 07:18:38;;;;;;;7.68;5.50;;;;;;;18.79;53.49;97859.53;5133382;28;20030;-63
2022/09/16 07:21:12;;;;;;;6.55;5.28;;;;;;;18.81;53.39;97857.47;5133739;28;20401;-66
2022/09/16 07:23:38;;;;;;;5.68;4.57;;;;;;;18.85;53.13;97853.34;5133284;28;20482;-65
2022/09/16 07:26:22;;;;;;;5.68;4.20;;;;;;;18.87;52.97;97855.78;5133571;28;20374;-65
2022/09/16 07:28:49;;;;;;;11.10;4.40;;;;;;;18.89;53.04;97859.06;5133527;28;20084;-67
2022/09/16 07:31:17;;;;;;;8.98;5.32;;;;;;;18.92;53.13;97847.94;5133646;28;20513;-65
2022/09/16 07:33:46;;;;;;;7.15;5.38;;;;;;;18.92;53.25;97848.75;5133356;28;20564;-66
2022/09/16 07:36:15;;;;;;;15.07;8.57;;;;;;;18.94;53.32;97839.66;5132929;28;20039;-66
2022/09/16 07:38:40;;;;;;;8.85;5.93;;;;;;;18.94;53.37;97834.31;5143109;27;20500;-65
2022/09/16 07:41:33;;;;;;;7.65;5.57;;;;;;;18.96;53.36;97833.09;5153272;27;20027;-66
2022/09/16 07:43:59;;;;;;;6.40;5.40;;;;;;;18.97;53.39;97826.69;5146891;27;20050;-64
2022/09/16 07:46:27;;;;;;;7.18;4.68;;;;;;;19.01;53.25;97827.09;5150519;27;20038;-63
2022/09/16 07:48:53;;;;;;;9.18;4.75;;;;;;;19.04;53.46;97829.34;5153726;27;20037;-69
2022/09/16 07:51:23;;;;;;;9.43;5.47;;;;;;;19.10;53.32;97817.72;5153233;27;20086;-66
2022/09/16 07:53:54;;;;;;;14.45;4.88;;;;;;;19.14;53.41;97816.25;5149366;27;20046;-66
2022/09/16 07:56:24;;;;;;;13.27;6.25;;;;;;;19.18;53.46;97811.25;5152488;27;20057;-63
2022/09/16 07:58:50;;;;;;;11.35;6.47;;;;;;;19.22;53.60;97812.47;5151359;27;20404;-65
2022/09/16 08:01:17;;;;;;;9.80;7.13;;;;;;;19.24;53.49;97812.25;5151372;27;20035;-65
2022/09/16 08:03:44;;;;;;;11.68;7.15;;;;;;;19.26;53.85;97815.53;5151781;27;20057;-64
2022/09/16 08:06:13;;;;;;;11.45;7.55;;;;;;;19.28;54.11;97811.59;5151592;27;20039;-65
2022/09/16 08:08:39;;;;;;;24.50;7.50;;;;;;;19.31;54.22;97807.66;5152803;27;20038;-66
2022/09/16 08:11:05;;;;;;;12.75;7.60;;;;;;;19.35;54.19;97806.16;5152269;27;20034;-64
2022/09/16 08:13:33;;;;;;;10.48;7.47;;;;;;;19.39;54.14;97803.88;5150720;27;20042;-65
2022/09/16 08:16:03;;;;;;;14.38;7.53;;;;;;;19.42;54.35;97790.00;5151242;27;20091;-66
2022/09/16 08:18:29;;;;;;;14.65;7.20;;;;;;;19.47;54.45;97796.38;5155345;27;20400;-65
2022/09/16 08:20:55;;;;;;;15.55;7.60;;;;;;;19.50;54.39;97792.41;5153898;27;20043;-66
2022/09/16 08:23:20;;;;;;;11.57;7.70;;;;;;;19.54;54.55;97787.41;5151245;27;20082;-65
2022/09/16 08:25:49;;;;;;;9.18;6.95;;;;;;;19.58;54.55;97791.31;5150388;27;20031;-65
2022/09/16 08:28:19;;;;;;;12.52;6.82;;;;;;;19.59;54.80;97788.38;5147387;27;20039;-62
2022/09/16 08:30:45;;;;;;;10.05;7.03;;;;;;;19.62;54.80;97784.47;5141635;27;20038;-64
2022/09/16 08:33:10;;;;;;;12.88;7.57;;;;;;;19.64;54.75;97779.66;5155312;27;20042;-64
2022/09/16 08:35:36;;;;;;;12.27;6.72;;;;;;;19.69;54.92;97779.03;5154392;27;20022;-65
2022/09/16 08:38:01;;;;;;;22.65;8.40;;;;;;;19.74;54.88;97776.47;5147371;27;20026;-65
2022/09/16 08:40:33;;;;;;;11.43;6.47;;;;;;;19.75;54.90;97773.59;5155518;27;20030;-67
2022/09/16 08:42:59;;;;;;;15.27;7.05;;;;;;;19.78;54.64;97783.03;5136925;27;20034;-62
2022/09/16 08:45:51;;;;;;;15.60;8.80;;;;;;;19.77;54.71;97776.03;5157044;27;20575;-66
2022/09/16 08:48:33;;;;;;;12.48;6.72;;;;;;;19.78;54.90;97775.78;5156888;27;20050;-64
2022/09/16 08:51:01;;;;;;;22.42;8.50;;;;;;;19.79;54.68;97774.75;5156890;27;20489;-66
2022/09/16 08:53:48;;;;;;;15.38;9.85;;;;;;;19.82;54.73;97779.69;5154976;27;20050;-65
2022/09/16 08:56:18;;;;;;;12.77;8.77;;;;;;;19.83;54.77;97784.00;5155609;27;20068;-66
2022/09/16 08:58:52;;;;;;;13.65;8.00;;;;;;;19.84;54.53;97787.53;5156489;27;20099;-66
2022/09/16 09:01:35;;;;;;;15.60;8.85;;;;;;;19.85;54.76;97782.97;5156443;27;20026;-63
2022/09/16 09:04:02;;;;;;;13.98;7.75;;;;;;;19.87;54.57;97786.28;5155919;27;20401;-67
2022/09/16 09:06:46;;;;;;;11.73;6.97;;;;;;;19.87;54.81;97775.53;5155804;27;20030;-65
2022/09/16 09:09:17;;;;;;;9.85;7.57;;;;;;;19.89;54.87;97781.50;5156524;27;20038;-67
2022/09/16 09:12:11;;;;;;;11.50;7.57;;;;;;;19.91;54.72;97779.44;5156299;27;20041;-66
2022/09/16 09:14:36;;;;;;;12.43;7.30;;;;;;;19.93;54.92;97782.69;5155614;27;20030;-65
2022/09/16 09:17:09;;;;;;;11.85;6.85;;;;;;;19.92;54.66;97779.19;5156049;27;20506;-68
2022/09/16 09:19:49;;;;;;;12.30;7.00;;;;;;;19.94;54.56;97779.78;5156148;27;20041;-65
2022/09/16 09:22:33;;;;;;;9.57;6.30;;;;;;;19.95;54.66;97781.44;5156098;27;20381;-65
2022/09/16 09:25:17;;;;;;;12.20;6.72;;;;;;;19.97;54.61;97773.97;5147737;27;20046;-66
2022/09/16 09:28:20;;;;;;;14.10;7.60;;;;;;;19.97;54.53;97773.97;5156152;27;20031;-66
2022/09/16 09:30:59;;;;;;;8.27;6.45;;;;;;;19.97;54.41;97765.09;5155799;27;20429;-67
2022/09/16 09:33:59;;;;;;;8.70;5.72;;;;;;;19.98;54.21;97769.41;5155122;27;20038;-65
2022/09/16 09:36:34;;;;;;;9.95;5.85;;;;;;;20.00;54.22;97766.53;5113637;27;20065;-66
2022/09/16 09:39:24;;;;;;;7.88;5.57;;;;;;;20.02;54.07;97756.34;5155537;27;20042;-66
2022/09/16 09:41:57;;;;;;;8.60;5.55;;;;;;;20.02;54.26;97751.81;5155610;27;20430;-67
2022/09/16 09:44:45;;;;;;;6.18;4.95;;;;;;;20.06;54.11;97749.50;5154820;27;20034;-66
2022/09/16 09:47:19;;;;;;;7.35;5.50;;;;;;;20.05;53.96;97746.00;5136387;27;20039;-66
2022/09/16 09:49:56;;;;;;;6.95;5.13;;;;;;;20.07;53.82;97748.44;5155773;27;20038;-67
2022/09/16 09:52:33;;;;;;;6.32;4.78;;;;;;;20.09;53.84;97746.38;5154289;27;20047;-66
2022/09/16 09:55:14;;;;;;;7.28;5.22;;;;;;;20.10;53.66;97746.13;5154551;27;20039;-65
2022/09/16 09:57:53;;;;;;;7.25;4.95;;;;;;;20.10;53.56;97750.69;5155522;27;20115;-67
2022/09/16 10:00:20;;;;;;;6.80;5.20;;;;;;;20.09;53.72;97749.84;5154581;27;20023;-66
2022/09/16 10:02:46;;;;;;;8.02;4.70;;;;;;;20.10;53.54;97748.81;5154364;27;20354;-65
2022/09/16 10:05:27;;;;;;;7.95;5.35;;;;;;;20.13;53.42;97734.13;5154815;27;20035;-64
2022/09/16 10:07:57;;;;;;;7.15;4.70;;;;;;;20.11;53.63;97738.91;5155431;27;20038;-67
2022/09/16 10:10:25;;;;;;;5.90;4.68;;;;;;;20.13;53.49;97745.69;5154931;27;20031;-67
2022/09/16 10:12:51;;;;;;;6.75;4.65;;;;;;;20.13;53.45;97742.19;5154913;27;20035;-66
2022/09/16 10:15:27;;;;;;;5.75;4.60;;;;;;;20.12;53.63;97740.53;5154941;27;20034;-66
2022/09/16 10:17:53;;;;;;;7.43;4.85;;;;;;;20.11;53.43;97737.03;5154878;27;20034;-68
2022/09/16 10:20:42;;;;;;;6.10;4.50;;;;;;;20.12;53.55;97729.81;5154962;27;20045;-67
2022/09/16 10:23:13;;;;;;;6.68;4.68;;;;;;;20.12;53.48;97716.38;5134000;27;20042;-67
2022/09/16 10:25:39;;;;;;;5.13;4.35;;;;;;;20.11;53.30;97723.59;5134690;27;20062;-66
2022/09/16 10:28:20;;;;;;;8.30;4.78;;;;;;;20.12;53.43;97732.50;5134312;27;20396;-66
2022/09/16 10:30:57;;;;;;;7.00;4.97;;;;;;;20.12;53.24;97722.56;5134074;27;20486;-64
2022/09/16 10:33:42;;;;;;;6.60;4.65;;;;;;;20.12;53.25;97717.19;5152180;27;20038;-64
2022/09/16 10:36:16;;;;;;;5.93;3.90;;;;;;;20.12;53.37;97711.81;5153989;27;20035;-65
2022/09/16 10:38:46;;;;;;;7.75;4.45;;;;;;;20.15;53.31;97715.09;5154443;27;20121;-65
2022/09/16 10:41:21;;;;;;;5.05;3.80;;;;;;;20.15;53.47;97710.53;5154609;27;20057;-65
2022/09/16 10:43:51;;;;;;;4.78;4.28;;;;;;;20.18;53.44;97709.28;5154587;27;20037;-66
2022/09/16 10:46:18;;;;;;;5.80;4.45;;;;;;;20.18;53.38;97711.97;5154767;27;20467;-65
2022/09/16 10:48:44;;;;;;;7.00;4.40;;;;;;;20.18;53.27;97712.75;5153637;27;20058;-66
2022/09/16 10:51:25;;;;;;;6.05;3.83;;;;;;;20.18;53.25;97706.59;5153793;27;20035;-64
2022/09/16 10:53:54;;;;;;;5.80;4.50;;;;;;;20.18;53.25;97712.75;5152914;27;20051;-65
2022/09/16 10:56:23;;;;;;;7.60;4.25;;;;;;;20.18;53.25;97706.59;5153196;27;20053;-65
2022/09/16 10:59:09;;;;;;;5.93;3.83;;;;;;;20.17;53.21;97707.63;5154529;27;20034;-66
2022/09/16 11:01:47;;;;;;;5.55;4.10;;;;;;;20.17;53.39;97704.94;5154194;27;20043;-67
2022/09/16 11:04:30;;;;;;;4.93;3.90;;;;;;;20.13;53.22;97691.97;5153699;27;20037;-67
2022/09/16 11:07:34;;;;;;;6.20;3.75;;;;;;;20.13;53.27;97691.97;5154501;27;20038;-66
2022/09/16 11:10:09;;;;;;;6.20;3.80;;;;;;;20.13;53.27;97693.84;5153453;27;20028;-66
2022/09/16 11:13:07;;;;;;;5.13;4.00;;;;;;;20.11;53.40;97690.56;5154201;27;20081;-64
2022/09/16 11:15:57;;;;;;;4.30;2.80;;;;;;;20.08;53.27;97675.72;5122902;27;20043;-67
2022/09/16 11:18:41;;;;;;;5.22;3.60;;;;;;;20.08;53.40;97669.56;5153855;27;20539;-65
2022/09/16 11:21:28;;;;;;;5.05;3.58;;;;;;;20.07;53.17;97671.41;5152984;27;20034;-63
2022/09/16 11:24:14;;;;;;;7.38;3.33;;;;;;;20.08;53.22;97672.22;5140923;27;20084;-65
2022/09/16 11:27:00;;;;;;;3.95;3.17;;;;;;;20.06;53.29;97669.78;5133624;28;20035;-65
2022/09/16 11:29:36;;;;;;;4.70;3.20;;;;;;;20.05;53.16;97678.06;5133397;28;20401;-64
2022/09/16 11:32:17;;;;;;;5.47;4.30;;;;;;;20.05;53.41;97676.19;5141872;27;20430;-65
2022/09/16 11:35:01;;;;;;;4.18;3.28;;;;;;;20.05;53.33;97662.78;5152684;27;20049;-64
2022/09/16 11:37:50;;;;;;;4.18;3.33;;;;;;;20.04;53.36;97669.19;5153032;27;20083;-64
2022/09/16 11:40:35;;;;;;;8.80;4.93;;;;;;;20.02;53.49;97665.91;5133490;28;20129;-65
2022/09/16 11:43:18;;;;;;;5.47;4.38;;;;;;;20.04;53.45;97654.94;5133409;28;20032;-68
2022/09/16 11:46:30;;;;;;;5.53;3.67;;;;;;;20.01;53.71;97648.16;5153582;27;20043;-64
2022/09/16 11:49:10;;;;;;;7.88;3.45;;;;;;;20.01;53.62;97648.16;5095343;27;20042;-67
2022/09/16 11:52:09;;;;;;;8.93;4.40;;;;;;;20.01;53.71;97648.16;5158204;27;20041;-65
2022/09/16 11:54:59;;;;;;;6.65;3.70;;;;;;;20.00;53.84;97637.66;5156498;27;20296;-64
2022/09/16 11:57:33;;;;;;;7.75;3.88;;;;;;;20.01;53.84;97640.13;5157881;27;20034;-67